sensor_id;sensor_type;location;lat;lon;timestamp;P1;durP1;ratioP1;P2;durP2;ratioP2
18443;SDS011;9350;53.176;8.194;2024-01-27T00:00:48;20.17;;;3.08;;
18443;SDS011;9350;53.176;8.194;2024-01-27T00:03:14;19.45;;;2.72;;
18443;SDS011;9350;53.176;8.194;2024-01-27T00:05:41;25.35;;;4.05;;
18443;SDS011;9350;53.176;8.194;2024-01-27T00:08:08;14.95;;;2.97;;
18443;SDS011;9350;53.176;8.194;2024-01-27T00:10:36;22.58;;;3.35;;
18443;SDS011;9350;53.176;8.194;2024-01-27T00:13:03;23.52;;;3.03;;
18443;SDS011;9350;53.176;8.194;2024-01-27T00:15:30;24.02;;;3.67;;
18443;SDS011;9350;53.176;8.194;2024-01-27T00:17:57;13.40;;;2.65;;
18443;SDS011;9350;53.176;8.194;2024-01-27T00:20:24;25.30;;;3.65;;
18443;SDS011;9350;53.176;8.194;2024-01-27T00:22:50;15.40;;;2.65;;
18443;SDS011;9350;53.176;8.194;2024-01-27T00:25:17;21.73;;;2.97;;
18443;SDS011;9350;53.176;8.194;2024-01-27T00:27:45;13.88;;;2.72;;
18443;SDS011;9350;53.176;8.194;2024-01-27T00:30:12;17.17;;;3.17;;
18443;SDS011;9350;53.176;8.194;2024-01-27T00:32:39;27.77;;;3.38;;
18443;SDS011;9350;53.176;8.194;2024-01-27T00:35:07;25.77;;;4.43;;
18443;SDS011;9350;53.176;8.194;2024-01-27T00:37:34;14.13;;;2.50;;
18443;SDS011;9350;53.176;8.194;2024-01-27T00:40:01;23.85;;;3.78;;
18443;SDS011;9350;53.176;8.194;2024-01-27T00:42:28;13.98;;;2.88;;
18443;SDS011;9350;53.176;8.194;2024-01-27T00:44:56;26.73;;;3.38;;
18443;SDS011;9350;53.176;8.194;2024-01-27T00:47:23;17.40;;;2.67;;
18443;SDS011;9350;53.176;8.194;2024-01-27T00:49:50;21.10;;;3.60;;
18443;SDS011;9350;53.176;8.194;2024-01-27T00:52:19;20.88;;;3.25;;
18443;SDS011;9350;53.176;8.194;2024-01-27T00:54:45;19.65;;;3.20;;
18443;SDS011;9350;53.176;8.194;2024-01-27T00:57:12;23.35;;;3.45;;
18443;SDS011;9350;53.176;8.194;2024-01-27T00:59:39;27.05;;;3.70;;
18443;SDS011;9350;53.176;8.194;2024-01-27T01:02:07;16.30;;;3.00;;
18443;SDS011;9350;53.176;8.194;2024-01-27T01:04:34;18.75;;;2.83;;
18443;SDS011;9350;53.176;8.194;2024-01-27T01:07:01;28.42;;;3.38;;
18443;SDS011;9350;53.176;8.194;2024-01-27T01:09:27;17.67;;;3.05;;
18443;SDS011;9350;53.176;8.194;2024-01-27T01:11:54;23.60;;;3.13;;
18443;SDS011;9350;53.176;8.194;2024-01-27T01:14:20;13.38;;;2.60;;
18443;SDS011;9350;53.176;8.194;2024-01-27T01:16:47;21.25;;;3.33;;
18443;SDS011;9350;53.176;8.194;2024-01-27T01:19:15;16.98;;;2.75;;
18443;SDS011;9350;53.176;8.194;2024-01-27T01:21:42;20.13;;;2.35;;
18443;SDS011;9350;53.176;8.194;2024-01-27T01:24:09;22.58;;;3.58;;
18443;SDS011;9350;53.176;8.194;2024-01-27T01:26:36;19.17;;;2.70;;
18443;SDS011;9350;53.176;8.194;2024-01-27T01:29:03;20.20;;;2.60;;
18443;SDS011;9350;53.176;8.194;2024-01-27T01:31:30;15.50;;;3.17;;
18443;SDS011;9350;53.176;8.194;2024-01-27T01:33:57;20.90;;;2.55;;
18443;SDS011;9350;53.176;8.194;2024-01-27T01:36:25;25.27;;;3.30;;
18443;SDS011;9350;53.176;8.194;2024-01-27T01:38:52;17.55;;;2.88;;
18443;SDS011;9350;53.176;8.194;2024-01-27T01:41:18;23.55;;;3.47;;
18443;SDS011;9350;53.176;8.194;2024-01-27T01:43:45;20.58;;;2.38;;
18443;SDS011;9350;53.176;8.194;2024-01-27T01:46:12;22.52;;;2.88;;
18443;SDS011;9350;53.176;8.194;2024-01-27T01:48:39;18.75;;;3.22;;
18443;SDS011;9350;53.176;8.194;2024-01-27T01:51:05;11.60;;;2.38;;
18443;SDS011;9350;53.176;8.194;2024-01-27T01:53:34;14.05;;;2.38;;
18443;SDS011;9350;53.176;8.194;2024-01-27T01:56:01;20.75;;;3.00;;
18443;SDS011;9350;53.176;8.194;2024-01-27T01:58:28;17.83;;;2.92;;
18443;SDS011;9350;53.176;8.194;2024-01-27T02:00:59;12.25;;;2.30;;
18443;SDS011;9350;53.176;8.194;2024-01-27T02:03:26;20.05;;;2.95;;
18443;SDS011;9350;53.176;8.194;2024-01-27T02:05:53;26.73;;;3.17;;
18443;SDS011;9350;53.176;8.194;2024-01-27T02:08:20;17.38;;;3.13;;
18443;SDS011;9350;53.176;8.194;2024-01-27T02:10:48;30.65;;;3.08;;
18443;SDS011;9350;53.176;8.194;2024-01-27T02:13:16;13.55;;;3.20;;
18443;SDS011;9350;53.176;8.194;2024-01-27T02:15:44;22.40;;;3.65;;
18443;SDS011;9350;53.176;8.194;2024-01-27T02:18:11;20.15;;;3.05;;
18443;SDS011;9350;53.176;8.194;2024-01-27T02:20:38;16.52;;;2.83;;
18443;SDS011;9350;53.176;8.194;2024-01-27T02:23:05;17.70;;;2.60;;
18443;SDS011;9350;53.176;8.194;2024-01-27T02:25:33;22.40;;;2.92;;
18443;SDS011;9350;53.176;8.194;2024-01-27T02:28:01;28.00;;;3.60;;
18443;SDS011;9350;53.176;8.194;2024-01-27T02:30:28;18.23;;;2.42;;
18443;SDS011;9350;53.176;8.194;2024-01-27T02:32:55;20.33;;;3.28;;
18443;SDS011;9350;53.176;8.194;2024-01-27T02:35:22;15.95;;;2.67;;
18443;SDS011;9350;53.176;8.194;2024-01-27T02:37:49;15.23;;;2.53;;
18443;SDS011;9350;53.176;8.194;2024-01-27T02:40:16;18.60;;;2.50;;
18443;SDS011;9350;53.176;8.194;2024-01-27T02:42:44;23.52;;;3.65;;
18443;SDS011;9350;53.176;8.194;2024-01-27T02:45:11;14.20;;;2.90;;
18443;SDS011;9350;53.176;8.194;2024-01-27T02:47:38;15.00;;;2.95;;
18443;SDS011;9350;53.176;8.194;2024-01-27T02:50:05;17.02;;;2.95;;
18443;SDS011;9350;53.176;8.194;2024-01-27T02:52:33;15.60;;;2.55;;
18443;SDS011;9350;53.176;8.194;2024-01-27T02:55:00;20.08;;;3.13;;
18443;SDS011;9350;53.176;8.194;2024-01-27T02:57:27;19.50;;;3.03;;
18443;SDS011;9350;53.176;8.194;2024-01-27T02:59:55;16.30;;;2.83;;
18443;SDS011;9350;53.176;8.194;2024-01-27T03:02:22;20.88;;;3.20;;
18443;SDS011;9350;53.176;8.194;2024-01-27T03:04:49;15.70;;;2.58;;
18443;SDS011;9350;53.176;8.194;2024-01-27T03:07:15;18.17;;;2.92;;
18443;SDS011;9350;53.176;8.194;2024-01-27T03:09:42;12.50;;;2.17;;
18443;SDS011;9350;53.176;8.194;2024-01-27T03:12:09;18.10;;;3.03;;
18443;SDS011;9350;53.176;8.194;2024-01-27T03:14:36;21.55;;;3.00;;
18443;SDS011;9350;53.176;8.194;2024-01-27T03:17:04;22.00;;;3.33;;
18443;SDS011;9350;53.176;8.194;2024-01-27T03:19:32;20.77;;;2.65;;
18443;SDS011;9350;53.176;8.194;2024-01-27T03:21:59;17.55;;;2.30;;
18443;SDS011;9350;53.176;8.194;2024-01-27T03:24:25;21.13;;;3.05;;
18443;SDS011;9350;53.176;8.194;2024-01-27T03:26:52;17.60;;;2.50;;
18443;SDS011;9350;53.176;8.194;2024-01-27T03:29:19;18.55;;;3.00;;
18443;SDS011;9350;53.176;8.194;2024-01-27T03:31:46;17.80;;;2.63;;
18443;SDS011;9350;53.176;8.194;2024-01-27T03:34:15;18.58;;;2.83;;
18443;SDS011;9350;53.176;8.194;2024-01-27T03:36:47;13.45;;;2.38;;
18443;SDS011;9350;53.176;8.194;2024-01-27T03:39:14;21.27;;;2.45;;
18443;SDS011;9350;53.176;8.194;2024-01-27T03:41:41;24.88;;;3.00;;
18443;SDS011;9350;53.176;8.194;2024-01-27T03:44:08;20.00;;;2.55;;
18443;SDS011;9350;53.176;8.194;2024-01-27T03:46:34;18.88;;;3.53;;
18443;SDS011;9350;53.176;8.194;2024-01-27T03:49:04;16.92;;;2.30;;
18443;SDS011;9350;53.176;8.194;2024-01-27T03:51:32;17.85;;;2.78;;
18443;SDS011;9350;53.176;8.194;2024-01-27T03:53:59;16.90;;;2.70;;
18443;SDS011;9350;53.176;8.194;2024-01-27T03:56:26;17.13;;;2.42;;
18443;SDS011;9350;53.176;8.194;2024-01-27T03:58:52;13.65;;;2.75;;
18443;SDS011;9350;53.176;8.194;2024-01-27T04:01:19;20.83;;;2.95;;
18443;SDS011;9350;53.176;8.194;2024-01-27T04:03:46;18.30;;;2.53;;
18443;SDS011;9350;53.176;8.194;2024-01-27T04:06:13;11.60;;;2.75;;
18443;SDS011;9350;53.176;8.194;2024-01-27T04:08:41;15.10;;;3.33;;
18443;SDS011;9350;53.176;8.194;2024-01-27T04:11:18;19.30;;;2.35;;
18443;SDS011;9350;53.176;8.194;2024-01-27T04:13:45;18.27;;;2.40;;
18443;SDS011;9350;53.176;8.194;2024-01-27T04:16:12;23.65;;;3.03;;
18443;SDS011;9350;53.176;8.194;2024-01-27T04:18:38;13.55;;;2.78;;
18443;SDS011;9350;53.176;8.194;2024-01-27T04:21:05;13.55;;;2.45;;
18443;SDS011;9350;53.176;8.194;2024-01-27T04:23:32;13.57;;;2.30;;
18443;SDS011;9350;53.176;8.194;2024-01-27T04:26:00;17.75;;;2.90;;
18443;SDS011;9350;53.176;8.194;2024-01-27T04:28:27;24.60;;;2.85;;
18443;SDS011;9350;53.176;8.194;2024-01-27T04:30:55;20.50;;;2.90;;
18443;SDS011;9350;53.176;8.194;2024-01-27T04:33:22;17.77;;;2.45;;
18443;SDS011;9350;53.176;8.194;2024-01-27T04:35:48;17.30;;;3.03;;
18443;SDS011;9350;53.176;8.194;2024-01-27T04:38:15;13.82;;;2.55;;
18443;SDS011;9350;53.176;8.194;2024-01-27T04:40:42;15.50;;;2.60;;
18443;SDS011;9350;53.176;8.194;2024-01-27T04:43:12;19.15;;;2.70;;
18443;SDS011;9350;53.176;8.194;2024-01-27T04:45:41;20.15;;;2.60;;
18443;SDS011;9350;53.176;8.194;2024-01-27T04:48:08;20.92;;;2.92;;
18443;SDS011;9350;53.176;8.194;2024-01-27T04:50:34;17.50;;;2.55;;
18443;SDS011;9350;53.176;8.194;2024-01-27T04:53:01;14.38;;;2.50;;
18443;SDS011;9350;53.176;8.194;2024-01-27T04:55:28;24.35;;;2.83;;
18443;SDS011;9350;53.176;8.194;2024-01-27T04:57:55;16.63;;;2.35;;
18443;SDS011;9350;53.176;8.194;2024-01-27T05:00:24;11.00;;;2.10;;
18443;SDS011;9350;53.176;8.194;2024-01-27T05:02:53;11.60;;;2.50;;
18443;SDS011;9350;53.176;8.194;2024-01-27T05:05:20;7.38;;;1.80;;
18443;SDS011;9350;53.176;8.194;2024-01-27T05:07:46;22.60;;;2.90;;
18443;SDS011;9350;53.176;8.194;2024-01-27T05:10:14;12.07;;;2.30;;
18443;SDS011;9350;53.176;8.194;2024-01-27T05:12:41;17.33;;;2.42;;
18443;SDS011;9350;53.176;8.194;2024-01-27T05:15:09;10.85;;;2.22;;
18443;SDS011;9350;53.176;8.194;2024-01-27T05:17:38;20.13;;;2.83;;
18443;SDS011;9350;53.176;8.194;2024-01-27T05:20:05;12.45;;;2.30;;
18443;SDS011;9350;53.176;8.194;2024-01-27T05:22:33;16.25;;;2.65;;
18443;SDS011;9350;53.176;8.194;2024-01-27T05:24:59;22.48;;;2.42;;
18443;SDS011;9350;53.176;8.194;2024-01-27T05:27:27;23.13;;;2.88;;
18443;SDS011;9350;53.176;8.194;2024-01-27T05:29:54;13.07;;;2.47;;
18443;SDS011;9350;53.176;8.194;2024-01-27T05:32:20;17.23;;;2.70;;
18443;SDS011;9350;53.176;8.194;2024-01-27T05:34:48;12.90;;;2.10;;
18443;SDS011;9350;53.176;8.194;2024-01-27T05:37:15;11.25;;;2.33;;
18443;SDS011;9350;53.176;8.194;2024-01-27T05:39:42;16.00;;;2.55;;
18443;SDS011;9350;53.176;8.194;2024-01-27T05:42:09;14.82;;;2.40;;
18443;SDS011;9350;53.176;8.194;2024-01-27T05:44:36;17.27;;;2.55;;
18443;SDS011;9350;53.176;8.194;2024-01-27T05:47:03;15.38;;;2.85;;
18443;SDS011;9350;53.176;8.194;2024-01-27T05:49:30;20.35;;;2.67;;
18443;SDS011;9350;53.176;8.194;2024-01-27T05:51:58;13.93;;;2.10;;
18443;SDS011;9350;53.176;8.194;2024-01-27T05:54:25;14.77;;;2.42;;
18443;SDS011;9350;53.176;8.194;2024-01-27T05:56:52;13.85;;;2.15;;
18443;SDS011;9350;53.176;8.194;2024-01-27T05:59:18;16.75;;;2.90;;
18443;SDS011;9350;53.176;8.194;2024-01-27T06:01:45;20.23;;;3.55;;
18443;SDS011;9350;53.176;8.194;2024-01-27T06:04:12;15.77;;;2.40;;
18443;SDS011;9350;53.176;8.194;2024-01-27T06:06:39;10.88;;;1.98;;
18443;SDS011;9350;53.176;8.194;2024-01-27T06:09:08;7.82;;;1.90;;
18443;SDS011;9350;53.176;8.194;2024-01-27T06:11:36;7.18;;;2.17;;
18443;SDS011;9350;53.176;8.194;2024-01-27T06:14:03;15.35;;;2.15;;
18443;SDS011;9350;53.176;8.194;2024-01-27T06:16:30;10.90;;;2.75;;
18443;SDS011;9350;53.176;8.194;2024-01-27T06:18:57;11.30;;;2.10;;
18443;SDS011;9350;53.176;8.194;2024-01-27T06:21:23;8.50;;;2.22;;
18443;SDS011;9350;53.176;8.194;2024-01-27T06:23:51;12.13;;;2.53;;
18443;SDS011;9350;53.176;8.194;2024-01-27T06:26:19;17.25;;;2.20;;
18443;SDS011;9350;53.176;8.194;2024-01-27T06:28:46;20.17;;;2.67;;
18443;SDS011;9350;53.176;8.194;2024-01-27T06:31:13;11.10;;;3.03;;
18443;SDS011;9350;53.176;8.194;2024-01-27T06:33:42;12.57;;;3.08;;
18443;SDS011;9350;53.176;8.194;2024-01-27T06:36:09;11.00;;;2.05;;
18443;SDS011;9350;53.176;8.194;2024-01-27T06:38:36;12.95;;;2.60;;
18443;SDS011;9350;53.176;8.194;2024-01-27T06:41:03;11.35;;;3.25;;
18443;SDS011;9350;53.176;8.194;2024-01-27T06:43:32;12.73;;;3.00;;
18443;SDS011;9350;53.176;8.194;2024-01-27T06:45:58;11.48;;;2.50;;
18443;SDS011;9350;53.176;8.194;2024-01-27T06:48:25;10.48;;;2.63;;
18443;SDS011;9350;53.176;8.194;2024-01-27T06:50:52;13.90;;;3.03;;
18443;SDS011;9350;53.176;8.194;2024-01-27T06:53:19;10.98;;;2.92;;
18443;SDS011;9350;53.176;8.194;2024-01-27T06:55:45;16.60;;;2.70;;
18443;SDS011;9350;53.176;8.194;2024-01-27T06:58:12;10.93;;;2.75;;
18443;SDS011;9350;53.176;8.194;2024-01-27T07:00:40;15.77;;;2.40;;
18443;SDS011;9350;53.176;8.194;2024-01-27T07:03:07;11.55;;;2.20;;
18443;SDS011;9350;53.176;8.194;2024-01-27T07:05:34;16.60;;;2.97;;
18443;SDS011;9350;53.176;8.194;2024-01-27T07:08:04;15.43;;;2.78;;
18443;SDS011;9350;53.176;8.194;2024-01-27T07:10:32;14.80;;;2.92;;
18443;SDS011;9350;53.176;8.194;2024-01-27T07:12:59;12.50;;;2.83;;
18443;SDS011;9350;53.176;8.194;2024-01-27T07:15:25;15.50;;;3.20;;
18443;SDS011;9350;53.176;8.194;2024-01-27T07:17:54;10.63;;;2.47;;
18443;SDS011;9350;53.176;8.194;2024-01-27T07:20:21;15.85;;;2.92;;
18443;SDS011;9350;53.176;8.194;2024-01-27T07:22:49;13.27;;;2.95;;
18443;SDS011;9350;53.176;8.194;2024-01-27T07:25:16;11.32;;;2.75;;
18443;SDS011;9350;53.176;8.194;2024-01-27T07:27:43;14.80;;;3.28;;
18443;SDS011;9350;53.176;8.194;2024-01-27T07:30:11;12.05;;;2.47;;
18443;SDS011;9350;53.176;8.194;2024-01-27T07:32:38;13.23;;;3.00;;
18443;SDS011;9350;53.176;8.194;2024-01-27T07:35:07;13.25;;;2.95;;
18443;SDS011;9350;53.176;8.194;2024-01-27T07:37:34;12.45;;;2.35;;
18443;SDS011;9350;53.176;8.194;2024-01-27T07:40:01;14.27;;;2.90;;
18443;SDS011;9350;53.176;8.194;2024-01-27T07:42:28;18.50;;;2.65;;
18443;SDS011;9350;53.176;8.194;2024-01-27T07:44:55;12.50;;;2.83;;
18443;SDS011;9350;53.176;8.194;2024-01-27T07:47:22;12.75;;;3.00;;
18443;SDS011;9350;53.176;8.194;2024-01-27T07:49:49;19.35;;;3.08;;
18443;SDS011;9350;53.176;8.194;2024-01-27T07:52:17;15.70;;;3.13;;
18443;SDS011;9350;53.176;8.194;2024-01-27T07:54:44;14.07;;;2.83;;
18443;SDS011;9350;53.176;8.194;2024-01-27T07:57:11;12.45;;;3.05;;
18443;SDS011;9350;53.176;8.194;2024-01-27T07:59:38;9.63;;;2.38;;
18443;SDS011;9350;53.176;8.194;2024-01-27T08:02:05;10.90;;;3.00;;
18443;SDS011;9350;53.176;8.194;2024-01-27T08:04:31;17.27;;;2.85;;
18443;SDS011;9350;53.176;8.194;2024-01-27T08:06:58;12.23;;;2.75;;
18443;SDS011;9350;53.176;8.194;2024-01-27T08:09:32;11.68;;;2.85;;
18443;SDS011;9350;53.176;8.194;2024-01-27T08:11:59;18.58;;;3.40;;
18443;SDS011;9350;53.176;8.194;2024-01-27T08:14:26;12.95;;;2.80;;
18443;SDS011;9350;53.176;8.194;2024-01-27T08:16:55;17.63;;;3.03;;
18443;SDS011;9350;53.176;8.194;2024-01-27T08:19:22;15.38;;;2.90;;
18443;SDS011;9350;53.176;8.194;2024-01-27T08:21:49;14.95;;;3.22;;
18443;SDS011;9350;53.176;8.194;2024-01-27T08:24:16;13.88;;;2.60;;
18443;SDS011;9350;53.176;8.194;2024-01-27T08:26:44;11.75;;;3.03;;
18443;SDS011;9350;53.176;8.194;2024-01-27T08:29:13;18.70;;;3.25;;
18443;SDS011;9350;53.176;8.194;2024-01-27T08:31:40;15.88;;;2.83;;
18443;SDS011;9350;53.176;8.194;2024-01-27T08:34:07;12.13;;;2.63;;
18443;SDS011;9350;53.176;8.194;2024-01-27T08:36:33;14.60;;;3.05;;
18443;SDS011;9350;53.176;8.194;2024-01-27T08:39:00;15.00;;;3.30;;
18443;SDS011;9350;53.176;8.194;2024-01-27T08:41:28;13.52;;;2.83;;
18443;SDS011;9350;53.176;8.194;2024-01-27T08:43:56;12.52;;;2.90;;
18443;SDS011;9350;53.176;8.194;2024-01-27T08:46:23;12.18;;;2.50;;
18443;SDS011;9350;53.176;8.194;2024-01-27T08:48:49;22.88;;;3.40;;
18443;SDS011;9350;53.176;8.194;2024-01-27T08:51:16;16.90;;;3.00;;
18443;SDS011;9350;53.176;8.194;2024-01-27T08:53:43;21.38;;;3.03;;
18443;SDS011;9350;53.176;8.194;2024-01-27T08:56:13;23.08;;;3.92;;
18443;SDS011;9350;53.176;8.194;2024-01-27T08:58:40;11.38;;;3.03;;
18443;SDS011;9350;53.176;8.194;2024-01-27T09:01:09;11.70;;;3.05;;
18443;SDS011;9350;53.176;8.194;2024-01-27T09:03:38;12.07;;;2.83;;
18443;SDS011;9350;53.176;8.194;2024-01-27T09:06:05;12.68;;;3.00;;
18443;SDS011;9350;53.176;8.194;2024-01-27T09:08:32;16.55;;;3.00;;
18443;SDS011;9350;53.176;8.194;2024-01-27T09:10:59;11.48;;;3.33;;
18443;SDS011;9350;53.176;8.194;2024-01-27T09:13:27;17.25;;;3.30;;
18443;SDS011;9350;53.176;8.194;2024-01-27T09:15:53;14.85;;;3.45;;
18443;SDS011;9350;53.176;8.194;2024-01-27T09:18:22;25.50;;;3.05;;
18443;SDS011;9350;53.176;8.194;2024-01-27T09:20:49;19.30;;;3.30;;
18443;SDS011;9350;53.176;8.194;2024-01-27T09:23:16;16.33;;;3.40;;
18443;SDS011;9350;53.176;8.194;2024-01-27T09:25:42;15.68;;;3.60;;
18443;SDS011;9350;53.176;8.194;2024-01-27T09:28:09;13.95;;;4.00;;
18443;SDS011;9350;53.176;8.194;2024-01-27T09:30:37;13.70;;;3.78;;
18443;SDS011;9350;53.176;8.194;2024-01-27T09:33:04;20.23;;;4.72;;
18443;SDS011;9350;53.176;8.194;2024-01-27T09:35:32;17.75;;;4.13;;
18443;SDS011;9350;53.176;8.194;2024-01-27T09:37:59;16.70;;;4.20;;
18443;SDS011;9350;53.176;8.194;2024-01-27T09:40:26;20.02;;;3.45;;
18443;SDS011;9350;53.176;8.194;2024-01-27T09:42:53;14.52;;;3.58;;
18443;SDS011;9350;53.176;8.194;2024-01-27T09:45:24;19.05;;;3.85;;
18443;SDS011;9350;53.176;8.194;2024-01-27T09:47:51;15.07;;;3.47;;
18443;SDS011;9350;53.176;8.194;2024-01-27T09:50:20;23.77;;;3.90;;
18443;SDS011;9350;53.176;8.194;2024-01-27T09:52:49;25.17;;;4.80;;
18443;SDS011;9350;53.176;8.194;2024-01-27T09:55:17;22.98;;;4.13;;
18443;SDS011;9350;53.176;8.194;2024-01-27T09:57:45;19.13;;;3.75;;
18443;SDS011;9350;53.176;8.194;2024-01-27T10:00:14;10.45;;;3.60;;
18443;SDS011;9350;53.176;8.194;2024-01-27T10:02:42;20.30;;;3.90;;
18443;SDS011;9350;53.176;8.194;2024-01-27T10:05:11;14.77;;;4.30;;
18443;SDS011;9350;53.176;8.194;2024-01-27T10:07:39;14.60;;;3.55;;
18443;SDS011;9350;53.176;8.194;2024-01-27T10:10:08;16.38;;;3.80;;
18443;SDS011;9350;53.176;8.194;2024-01-27T10:12:36;23.95;;;4.72;;
18443;SDS011;9350;53.176;8.194;2024-01-27T10:15:07;19.80;;;5.28;;
18443;SDS011;9350;53.176;8.194;2024-01-27T10:17:44;14.73;;;4.22;;
18443;SDS011;9350;53.176;8.194;2024-01-27T10:20:11;18.65;;;4.43;;
18443;SDS011;9350;53.176;8.194;2024-01-27T10:22:40;19.42;;;4.13;;
18443;SDS011;9350;53.176;8.194;2024-01-27T10:25:09;16.98;;;4.07;;
18443;SDS011;9350;53.176;8.194;2024-01-27T10:27:36;24.02;;;4.95;;
18443;SDS011;9350;53.176;8.194;2024-01-27T10:30:03;19.50;;;4.70;;
18443;SDS011;9350;53.176;8.194;2024-01-27T10:32:32;25.20;;;4.88;;
18443;SDS011;9350;53.176;8.194;2024-01-27T10:35:02;19.77;;;5.50;;
18443;SDS011;9350;53.176;8.194;2024-01-27T10:37:29;24.52;;;4.90;;
18443;SDS011;9350;53.176;8.194;2024-01-27T10:40:00;20.40;;;5.32;;
18443;SDS011;9350;53.176;8.194;2024-01-27T10:42:30;16.95;;;4.93;;
18443;SDS011;9350;53.176;8.194;2024-01-27T10:44:57;24.35;;;4.65;;
18443;SDS011;9350;53.176;8.194;2024-01-27T10:47:26;12.43;;;5.10;;
18443;SDS011;9350;53.176;8.194;2024-01-27T10:49:54;13.45;;;5.22;;
18443;SDS011;9350;53.176;8.194;2024-01-27T10:52:23;20.05;;;4.97;;
18443;SDS011;9350;53.176;8.194;2024-01-27T10:54:54;17.67;;;5.05;;
18443;SDS011;9350;53.176;8.194;2024-01-27T10:57:24;19.48;;;5.10;;
18443;SDS011;9350;53.176;8.194;2024-01-27T10:59:53;14.40;;;4.55;;
18443;SDS011;9350;53.176;8.194;2024-01-27T11:02:21;20.67;;;5.75;;
18443;SDS011;9350;53.176;8.194;2024-01-27T11:04:49;19.35;;;5.20;;
18443;SDS011;9350;53.176;8.194;2024-01-27T11:07:18;17.48;;;4.70;;
18443;SDS011;9350;53.176;8.194;2024-01-27T11:09:47;16.70;;;5.32;;
18443;SDS011;9350;53.176;8.194;2024-01-27T11:12:16;24.08;;;5.63;;
18443;SDS011;9350;53.176;8.194;2024-01-27T11:14:44;13.82;;;4.55;;
18443;SDS011;9350;53.176;8.194;2024-01-27T11:17:13;17.92;;;5.32;;
18443;SDS011;9350;53.176;8.194;2024-01-27T11:19:40;15.68;;;4.25;;
18443;SDS011;9350;53.176;8.194;2024-01-27T11:22:07;18.45;;;4.70;;
18443;SDS011;9350;53.176;8.194;2024-01-27T11:24:34;20.73;;;5.15;;
18443;SDS011;9350;53.176;8.194;2024-01-27T11:27:01;21.38;;;4.65;;
18443;SDS011;9350;53.176;8.194;2024-01-27T11:29:28;23.45;;;5.05;;
18443;SDS011;9350;53.176;8.194;2024-01-27T11:31:57;18.08;;;4.88;;
18443;SDS011;9350;53.176;8.194;2024-01-27T11:34:27;15.85;;;4.30;;
18443;SDS011;9350;53.176;8.194;2024-01-27T11:36:53;19.60;;;4.57;;
18443;SDS011;9350;53.176;8.194;2024-01-27T11:39:24;16.42;;;4.57;;
18443;SDS011;9350;53.176;8.194;2024-01-27T11:41:51;13.35;;;4.20;;
18443;SDS011;9350;53.176;8.194;2024-01-27T11:44:19;17.40;;;4.35;;
18443;SDS011;9350;53.176;8.194;2024-01-27T11:46:46;14.90;;;3.72;;
18443;SDS011;9350;53.176;8.194;2024-01-27T11:49:14;12.02;;;3.78;;
18443;SDS011;9350;53.176;8.194;2024-01-27T11:51:43;19.15;;;4.85;;
18443;SDS011;9350;53.176;8.194;2024-01-27T11:54:10;13.60;;;4.20;;
18443;SDS011;9350;53.176;8.194;2024-01-27T11:56:38;18.50;;;4.07;;
18443;SDS011;9350;53.176;8.194;2024-01-27T11:59:05;15.25;;;3.85;;
18443;SDS011;9350;53.176;8.194;2024-01-27T12:01:31;23.85;;;4.07;;
18443;SDS011;9350;53.176;8.194;2024-01-27T12:03:58;19.58;;;3.97;;
18443;SDS011;9350;53.176;8.194;2024-01-27T12:06:25;14.25;;;3.78;;
18443;SDS011;9350;53.176;8.194;2024-01-27T12:08:54;16.83;;;3.50;;
18443;SDS011;9350;53.176;8.194;2024-01-27T12:11:22;19.02;;;4.22;;
18443;SDS011;9350;53.176;8.194;2024-01-27T12:13:49;12.18;;;3.63;;
18443;SDS011;9350;53.176;8.194;2024-01-27T12:16:16;15.52;;;4.00;;
18443;SDS011;9350;53.176;8.194;2024-01-27T12:18:43;17.30;;;4.05;;
18443;SDS011;9350;53.176;8.194;2024-01-27T12:21:10;15.05;;;3.85;;
18443;SDS011;9350;53.176;8.194;2024-01-27T12:23:47;23.42;;;4.32;;
18443;SDS011;9350;53.176;8.194;2024-01-27T12:26:19;15.73;;;3.83;;
18443;SDS011;9350;53.176;8.194;2024-01-27T12:28:47;15.10;;;3.72;;
18443;SDS011;9350;53.176;8.194;2024-01-27T12:31:15;14.45;;;3.63;;
18443;SDS011;9350;53.176;8.194;2024-01-27T12:33:48;18.65;;;3.78;;
18443;SDS011;9350;53.176;8.194;2024-01-27T12:36:16;14.85;;;3.58;;
18443;SDS011;9350;53.176;8.194;2024-01-27T12:38:46;12.85;;;4.03;;
18443;SDS011;9350;53.176;8.194;2024-01-27T12:41:13;11.68;;;3.35;;
18443;SDS011;9350;53.176;8.194;2024-01-27T12:43:41;25.48;;;3.95;;
18443;SDS011;9350;53.176;8.194;2024-01-27T12:46:08;22.70;;;4.15;;
18443;SDS011;9350;53.176;8.194;2024-01-27T12:48:36;15.82;;;3.80;;
18443;SDS011;9350;53.176;8.194;2024-01-27T12:51:04;19.98;;;4.25;;
18443;SDS011;9350;53.176;8.194;2024-01-27T12:53:31;16.67;;;4.35;;
18443;SDS011;9350;53.176;8.194;2024-01-27T12:55:58;13.95;;;3.60;;
18443;SDS011;9350;53.176;8.194;2024-01-27T12:58:24;13.43;;;3.60;;
18443;SDS011;9350;53.176;8.194;2024-01-27T13:00:53;14.63;;;3.70;;
18443;SDS011;9350;53.176;8.194;2024-01-27T13:03:19;20.15;;;3.30;;
18443;SDS011;9350;53.176;8.194;2024-01-27T13:05:46;14.23;;;3.50;;
18443;SDS011;9350;53.176;8.194;2024-01-27T13:08:13;11.60;;;3.40;;
18443;SDS011;9350;53.176;8.194;2024-01-27T13:10:40;21.20;;;4.07;;
18443;SDS011;9350;53.176;8.194;2024-01-27T13:13:06;15.48;;;4.13;;
18443;SDS011;9350;53.176;8.194;2024-01-27T13:15:33;13.73;;;3.90;;
18443;SDS011;9350;53.176;8.194;2024-01-27T13:18:01;11.05;;;3.38;;
18443;SDS011;9350;53.176;8.194;2024-01-27T13:20:28;14.48;;;3.65;;
18443;SDS011;9350;53.176;8.194;2024-01-27T13:22:55;12.30;;;3.75;;
18443;SDS011;9350;53.176;8.194;2024-01-27T13:25:22;13.30;;;3.97;;
18443;SDS011;9350;53.176;8.194;2024-01-27T13:27:48;13.85;;;4.13;;
18443;SDS011;9350;53.176;8.194;2024-01-27T13:30:15;12.48;;;3.75;;
18443;SDS011;9350;53.176;8.194;2024-01-27T13:32:42;11.80;;;4.47;;
18443;SDS011;9350;53.176;8.194;2024-01-27T13:35:10;24.25;;;4.45;;
18443;SDS011;9350;53.176;8.194;2024-01-27T13:37:37;19.45;;;4.78;;
18443;SDS011;9350;53.176;8.194;2024-01-27T13:40:05;11.88;;;3.72;;
18443;SDS011;9350;53.176;8.194;2024-01-27T13:42:35;14.20;;;4.07;;
18443;SDS011;9350;53.176;8.194;2024-01-27T13:45:02;18.85;;;3.80;;
18443;SDS011;9350;53.176;8.194;2024-01-27T13:47:29;13.70;;;4.30;;
18443;SDS011;9350;53.176;8.194;2024-01-27T13:49:56;14.27;;;4.00;;
18443;SDS011;9350;53.176;8.194;2024-01-27T13:52:25;13.40;;;3.67;;
18443;SDS011;9350;53.176;8.194;2024-01-27T13:54:54;17.17;;;4.53;;
18443;SDS011;9350;53.176;8.194;2024-01-27T13:57:20;16.42;;;3.92;;
18443;SDS011;9350;53.176;8.194;2024-01-27T13:59:47;12.52;;;3.58;;
18443;SDS011;9350;53.176;8.194;2024-01-27T14:02:14;16.05;;;3.60;;
18443;SDS011;9350;53.176;8.194;2024-01-27T14:04:41;15.63;;;3.63;;
18443;SDS011;9350;53.176;8.194;2024-01-27T14:07:08;19.00;;;3.75;;
18443;SDS011;9350;53.176;8.194;2024-01-27T14:09:36;15.15;;;3.53;;
18443;SDS011;9350;53.176;8.194;2024-01-27T14:12:04;14.32;;;3.40;;
18443;SDS011;9350;53.176;8.194;2024-01-27T14:14:31;15.85;;;3.90;;
18443;SDS011;9350;53.176;8.194;2024-01-27T14:16:58;18.98;;;4.13;;
18443;SDS011;9350;53.176;8.194;2024-01-27T14:19:25;10.00;;;3.17;;
18443;SDS011;9350;53.176;8.194;2024-01-27T14:21:51;16.42;;;3.83;;
18443;SDS011;9350;53.176;8.194;2024-01-27T14:24:18;14.57;;;3.38;;
18443;SDS011;9350;53.176;8.194;2024-01-27T14:26:46;16.02;;;3.13;;
18443;SDS011;9350;53.176;8.194;2024-01-27T14:29:14;9.13;;;3.40;;
18443;SDS011;9350;53.176;8.194;2024-01-27T14:31:42;10.63;;;2.97;;
18443;SDS011;9350;53.176;8.194;2024-01-27T14:34:08;10.32;;;3.55;;
18443;SDS011;9350;53.176;8.194;2024-01-27T14:36:35;14.60;;;3.40;;
18443;SDS011;9350;53.176;8.194;2024-01-27T14:39:03;15.68;;;3.40;;
18443;SDS011;9350;53.176;8.194;2024-01-27T14:41:33;9.15;;;3.40;;
18443;SDS011;9350;53.176;8.194;2024-01-27T14:44:02;17.02;;;3.35;;
18443;SDS011;9350;53.176;8.194;2024-01-27T14:46:29;8.82;;;3.33;;
18443;SDS011;9350;53.176;8.194;2024-01-27T14:48:56;9.60;;;2.40;;